createdAt,value
2022-11-28T00:01:20.312Z,7.70
2022-11-28T00:03:47.548Z,7.60
2022-11-28T00:06:14.862Z,7.60
2022-11-28T00:08:41.833Z,7.60
2022-11-28T00:11:11.142Z,7.60
2022-11-28T00:13:39.116Z,7.60
2022-11-28T00:16:07.492Z,7.60
2022-11-28T00:18:34.466Z,7.70
2022-11-28T00:21:09.770Z,7.60
2022-11-28T00:23:36.983Z,7.70
2022-11-28T00:26:10.040Z,7.70
2022-11-28T00:28:37.103Z,7.70
2022-11-28T00:31:04.802Z,7.70
2022-11-28T00:33:32.786Z,7.60
2022-11-28T00:36:01.318Z,7.60
2022-11-28T00:38:28.280Z,7.70
2022-11-28T00:41:06.582Z,7.60
2022-11-28T00:43:33.839Z,7.60
2022-11-28T00:46:01.107Z,7.60
2022-11-28T00:48:28.233Z,7.60
2022-11-28T00:50:55.641Z,7.60
2022-11-28T00:53:22.506Z,7.60
2022-11-28T00:55:49.210Z,7.60
2022-11-28T00:58:15.922Z,7.60
2022-11-28T01:00:42.812Z,7.60
2022-11-28T01:03:09.610Z,7.50
2022-11-28T01:05:41.132Z,7.50
2022-11-28T01:08:08.115Z,7.60
2022-11-28T01:10:34.935Z,7.50
2022-11-28T01:13:01.723Z,7.50
2022-11-28T01:15:28.424Z,7.60
2022-11-28T01:17:55.135Z,7.50
2022-11-28T01:20:21.856Z,7.50
2022-11-28T01:22:48.769Z,7.50
2022-11-28T01:25:15.572Z,7.60
2022-11-28T01:27:42.254Z,7.50
2022-11-28T01:30:09.135Z,7.50
2022-11-28T01:32:35.902Z,7.50
2022-11-28T01:35:02.798Z,7.50
2022-11-28T01:37:30.315Z,7.50
2022-11-28T01:39:57.083Z,7.50
2022-11-28T01:42:24.230Z,7.50
2022-11-28T01:44:53.622Z,7.40
2022-11-28T01:47:23.590Z,7.50
2022-11-28T01:49:51.018Z,7.40
2022-11-28T01:52:20.182Z,7.40
2022-11-28T01:54:51.021Z,7.40
2022-11-28T01:57:21.230Z,7.40
2022-11-28T01:59:54.549Z,7.40
2022-11-28T02:02:27.384Z,7.40
2022-11-28T02:04:54.212Z,7.40
2022-11-28T02:07:21.054Z,7.40
2022-11-28T02:09:47.938Z,7.40
2022-11-28T02:12:35.960Z,7.40
2022-11-28T02:15:38.604Z,7.40
2022-11-28T02:18:47.439Z,7.40
2022-11-28T02:21:25.237Z,7.40
2022-11-28T02:24:24.044Z,7.40
2022-11-28T02:26:58.904Z,7.40
2022-11-28T02:29:34.362Z,7.40
2022-11-28T02:32:18.973Z,7.40
2022-11-28T02:35:04.377Z,7.40
2022-11-28T02:37:46.257Z,7.40
2022-11-28T02:40:29.476Z,7.40
2022-11-28T02:43:08.275Z,7.40
2022-11-28T02:45:53.194Z,7.40
2022-11-28T02:48:34.458Z,7.40
2022-11-28T02:51:12.598Z,7.40
2022-11-28T02:53:39.705Z,7.40
2022-11-28T02:56:06.756Z,7.30
2022-11-28T02:58:33.604Z,7.40
2022-11-28T03:01:00.650Z,7.30
2022-11-28T03:03:36.641Z,7.30
2022-11-28T03:06:25.814Z,7.30
2022-11-28T03:09:14.043Z,7.30
2022-11-28T03:12:25.123Z,7.30
2022-11-28T03:15:01.615Z,7.30
2022-11-28T03:17:46.423Z,7.30
2022-11-28T03:20:34.821Z,7.30
2022-11-28T03:23:38.349Z,7.30
2022-11-28T03:26:10.512Z,7.30
2022-11-28T03:28:54.416Z,7.40
2022-11-28T03:31:29.661Z,7.30
2022-11-28T03:33:58.959Z,7.30
2022-11-28T03:36:38.940Z,7.30
2022-11-28T03:39:09.617Z,7.30
2022-11-28T03:41:43.190Z,7.30
2022-11-28T03:44:15.508Z,7.30
2022-11-28T03:46:46.416Z,7.30
2022-11-28T03:49:16.673Z,7.30
2022-11-28T03:51:49.149Z,7.30
2022-11-28T03:54:25.136Z,7.30
2022-11-28T03:57:33.446Z,7.30
2022-11-28T04:00:06.161Z,7.30
2022-11-28T04:03:12.255Z,7.30
2022-11-28T04:05:47.957Z,7.30
2022-11-28T04:08:18.293Z,7.30
2022-11-28T04:10:49.272Z,7.30
2022-11-28T04:13:21.420Z,7.30
2022-11-28T04:15:59.693Z,7.30
2022-11-28T04:18:38.202Z,7.30
2022-11-28T04:21:14.325Z,7.20
2022-11-28T04:23:43.109Z,7.20
2022-11-28T04:26:23.344Z,7.20
2022-11-28T04:28:50.937Z,7.30
2022-11-28T04:31:19.319Z,7.20
2022-11-28T04:33:50.935Z,7.20
2022-11-28T04:36:19.458Z,7.30
2022-11-28T04:38:54.321Z,7.30
2022-11-28T04:41:33.038Z,7.20
2022-11-28T04:44:06.204Z,7.30
2022-11-28T04:46:37.864Z,7.20
2022-11-28T04:49:04.541Z,7.20
2022-11-28T04:51:44.575Z,7.30
2022-11-28T04:54:16.125Z,7.20
2022-11-28T04:57:04.398Z,7.20
2022-11-28T04:59:31.998Z,7.30
2022-11-28T05:02:02.243Z,7.30
2022-11-28T05:04:29.071Z,7.30
2022-11-28T05:07:07.156Z,7.20
2022-11-28T05:09:34.239Z,7.20
2022-11-28T05:12:00.963Z,7.30
2022-11-28T05:14:27.809Z,7.20
2022-11-28T05:16:54.651Z,7.20
2022-11-28T05:19:21.400Z,7.20
2022-11-28T05:21:48.192Z,7.20
2022-11-28T05:24:15.000Z,7.20
2022-11-28T05:26:42.158Z,7.30
2022-11-28T05:29:08.875Z,7.20
2022-11-28T05:31:35.710Z,7.20
2022-11-28T05:34:02.496Z,7.20
2022-11-28T05:36:29.212Z,7.20
2022-11-28T05:38:56.290Z,7.20
2022-11-28T05:41:30.590Z,7.20
2022-11-28T05:43:58.788Z,7.20
2022-11-28T05:48:52.393Z,7.20
2022-11-28T07:00:17.205Z,7.00
2022-11-28T07:02:45.809Z,7.00
2022-11-28T07:05:12.591Z,7.00
2022-11-28T07:07:53.250Z,7.00
2022-11-28T07:10:21.264Z,7.80
2022-11-28T07:12:48.396Z,7.00
2022-11-28T07:15:15.226Z,8.40
2022-11-28T07:17:41.952Z,7.00
2022-11-28T07:20:09.206Z,8.70
2022-11-28T07:22:35.940Z,7.00
2022-11-28T07:25:02.636Z,7.00
2022-11-28T07:27:29.519Z,6.90
2022-11-28T07:29:56.167Z,7.80
2022-11-28T07:32:22.956Z,7.60
2022-11-28T07:34:51.635Z,6.90
2022-11-28T07:37:18.433Z,6.90
2022-11-28T07:39:45.633Z,6.90
2022-11-28T07:42:12.432Z,6.90
2022-11-28T07:44:39.146Z,6.90
2022-11-28T07:47:05.889Z,6.90
2022-11-28T07:49:32.606Z,6.90
2022-11-28T07:51:59.376Z,7.00
2022-11-28T07:54:26.127Z,6.90
2022-11-28T07:59:39.688Z,6.90
2022-11-28T08:02:07.261Z,6.90
2022-11-28T08:04:34.100Z,6.90
2022-11-28T08:07:00.842Z,6.90
2022-11-28T08:09:27.802Z,6.90
2022-11-28T08:11:54.528Z,6.90
2022-11-28T08:14:21.521Z,6.90
2022-11-28T08:16:49.784Z,6.90
2022-11-28T08:19:16.648Z,6.90
2022-11-28T08:21:43.509Z,6.90
2022-11-28T08:24:11.228Z,6.90
2022-11-28T08:26:38.438Z,6.90
2022-11-28T08:29:05.231Z,6.90
2022-11-28T08:31:34.692Z,6.90
2022-11-28T08:34:03.479Z,6.90
2022-11-28T08:36:30.440Z,6.90
2022-11-28T08:41:45.910Z,7.00
2022-11-28T08:44:13.352Z,7.00
2022-11-28T08:46:40.095Z,7.00
2022-11-28T08:49:07.645Z,7.00
2022-11-28T08:51:34.377Z,7.10
2022-11-28T08:54:01.147Z,7.10
2022-11-28T08:56:28.232Z,7.20
2022-11-28T08:58:55.369Z,7.20
2022-11-28T09:01:24.667Z,7.20
2022-11-28T09:03:51.911Z,7.20
2022-11-28T09:06:20.519Z,7.30
2022-11-28T09:08:48.418Z,7.30
2022-11-28T09:11:18.476Z,7.30
2022-11-28T09:13:45.899Z,7.30
2022-11-28T09:16:13.306Z,7.40
2022-11-28T09:18:40.290Z,7.40
2022-11-28T09:21:11.815Z,7.50
2022-11-28T09:23:39.748Z,7.40
2022-11-28T09:26:10.858Z,7.40
2022-11-28T09:28:38.931Z,7.50
2022-11-28T09:31:06.793Z,7.50
2022-11-28T09:33:34.168Z,7.50
2022-11-28T09:36:08.926Z,7.50
2022-11-28T09:38:36.211Z,7.50
2022-11-28T09:41:03.771Z,7.50
2022-11-28T09:43:39.025Z,7.60
2022-11-28T09:46:11.604Z,7.60
2022-11-28T09:48:53.365Z,7.60
2022-11-28T09:51:48.507Z,7.60
2022-11-28T09:54:26.016Z,7.60
2022-11-28T09:56:52.999Z,7.60
2022-11-28T09:59:26.750Z,7.60
2022-11-28T10:02:04.855Z,7.70
2022-11-28T10:04:49.160Z,7.70
2022-11-28T10:07:43.075Z,7.80
2022-11-28T10:10:31.527Z,7.80
2022-11-28T10:13:41.260Z,7.80
2022-11-28T10:16:33.191Z,7.80
2022-11-28T10:19:01.981Z,7.80
2022-11-28T10:21:37.939Z,7.80
2022-11-28T10:24:12.829Z,7.80
2022-11-28T10:26:43.794Z,7.80
2022-11-28T10:29:25.252Z,7.80
2022-11-28T10:31:55.399Z,7.90
2022-11-28T10:34:42.019Z,7.90
2022-11-28T10:37:25.973Z,8.00
2022-11-28T10:39:53.184Z,8.00
2022-11-28T10:42:45.264Z,8.00
2022-11-28T10:45:39.361Z,8.10
2022-11-28T10:48:39.736Z,8.10
2022-11-28T10:51:22.448Z,8.10
2022-11-28T10:53:59.848Z,8.10
2022-11-28T10:56:57.787Z,8.10
2022-11-28T10:59:36.026Z,8.10
2022-11-28T11:02:20.948Z,8.20
2022-11-28T11:04:47.985Z,8.20
2022-11-28T11:07:31.528Z,8.20
2022-11-28T11:10:13.362Z,8.30
2022-11-28T11:12:40.671Z,8.30
2022-11-28T11:15:29.997Z,8.30
2022-11-28T11:17:57.345Z,8.30
2022-11-28T11:20:38.792Z,8.30
2022-11-28T11:23:25.948Z,8.40
2022-11-28T11:25:56.139Z,8.40
2022-11-28T11:28:47.407Z,8.40
2022-11-28T11:31:16.249Z,8.50
2022-11-28T11:33:43.390Z,8.50
2022-11-28T11:36:26.895Z,8.50
2022-11-28T11:39:10.823Z,8.50
2022-11-28T11:41:39.645Z,8.50
2022-11-28T11:44:15.551Z,8.60
2022-11-28T11:47:03.911Z,8.70
2022-11-28T11:49:37.049Z,8.60
2022-11-28T11:52:13.041Z,8.60
2022-11-28T11:54:40.714Z,8.70
2022-11-28T11:57:31.965Z,8.70
2022-11-28T12:00:14.372Z,8.70
2022-11-28T12:03:05.470Z,8.80
2022-11-28T12:08:50.340Z,8.80
2022-11-28T12:11:25.409Z,8.90
2022-11-28T12:13:52.386Z,8.90
2022-11-28T12:16:25.119Z,8.90
2022-11-28T12:19:15.911Z,8.90
2022-11-28T12:22:01.352Z,8.90
2022-11-28T12:25:00.052Z,8.90
2022-11-28T12:27:58.119Z,9.00
2022-11-28T12:30:34.193Z,9.00
2022-11-28T12:33:39.064Z,9.00
2022-11-28T12:36:36.841Z,9.00
2022-11-28T12:39:06.299Z,9.00
2022-11-28T12:41:35.726Z,9.00
2022-11-28T12:44:02.452Z,9.10
2022-11-28T12:46:35.295Z,9.10
2022-11-28T12:49:30.767Z,9.10
2022-11-28T12:52:12.106Z,9.10
2022-11-28T12:54:51.584Z,9.10
2022-11-28T12:57:23.211Z,9.10
2022-11-28T13:00:09.578Z,9.20
2022-11-28T13:02:59.860Z,9.20
2022-11-28T13:05:53.201Z,9.20
2022-11-28T13:08:50.689Z,9.20
2022-11-28T13:11:48.317Z,9.20
2022-11-28T13:14:33.180Z,9.40
2022-11-28T13:17:22.732Z,9.20
2022-11-28T13:19:52.441Z,9.30
2022-11-28T13:22:58.425Z,9.30
2022-11-28T13:25:32.353Z,9.30
2022-11-28T13:28:17.924Z,9.30
2022-11-28T13:30:56.287Z,9.30
2022-11-28T13:33:38.607Z,9.30
2022-11-28T13:36:09.231Z,9.40
2022-11-28T13:39:08.151Z,9.40
2022-11-28T13:45:02.061Z,9.40
2022-11-28T13:47:35.113Z,9.40
2022-11-28T13:50:29.606Z,9.40
2022-11-28T13:52:59.732Z,9.40
2022-11-28T13:55:44.925Z,9.50
2022-11-28T13:58:22.599Z,9.50
2022-11-28T14:01:21.558Z,9.50
2022-11-28T14:04:12.311Z,9.50
2022-11-28T14:06:59.500Z,9.50
2022-11-28T14:09:53.710Z,9.50
2022-11-28T14:12:36.382Z,9.50
2022-11-28T14:15:30.144Z,9.50
2022-11-28T14:18:31.665Z,9.60
2022-11-28T14:21:00.041Z,9.60
2022-11-28T14:23:29.867Z,9.60
2022-11-28T14:25:57.036Z,9.60
2022-11-28T14:28:27.674Z,9.50
2022-11-28T14:31:32.502Z,9.60
2022-11-28T14:34:01.890Z,9.60
2022-11-28T14:36:42.959Z,9.60
2022-11-28T14:39:31.979Z,9.60
2022-11-28T14:42:04.698Z,9.70
2022-11-28T14:45:07.904Z,9.70
2022-11-28T14:47:39.536Z,9.70
2022-11-28T14:50:06.282Z,9.70
2022-11-28T14:52:39.421Z,9.70
2022-11-28T14:55:13.164Z,9.80
2022-11-28T14:57:56.270Z,9.70
2022-11-28T15:00:26.002Z,9.80
2022-11-28T15:03:39.304Z,9.80
2022-11-28T15:06:14.255Z,9.80
2022-11-28T15:09:03.603Z,9.80
2022-11-28T15:11:39.649Z,9.80
2022-11-28T15:14:14.588Z,9.80
2022-11-28T15:16:49.893Z,9.80
2022-11-28T15:19:20.190Z,9.80
2022-11-28T15:21:48.996Z,9.80
2022-11-28T15:24:25.874Z,9.80
2022-11-28T15:26:57.342Z,9.80
2022-11-28T15:29:27.946Z,9.80
2022-11-28T15:31:56.334Z,9.80
2022-11-28T15:34:29.702Z,9.80
2022-11-28T15:37:02.344Z,9.80
2022-11-28T15:39:35.095Z,9.80
2022-11-28T15:42:04.090Z,9.80
2022-11-28T15:44:31.406Z,9.80
2022-11-28T15:46:58.369Z,10.00
2022-11-28T15:49:33.232Z,9.80
2022-11-28T15:52:02.370Z,9.80
2022-11-28T15:54:41.301Z,9.80
2022-11-28T15:57:18.970Z,9.80
2022-11-28T15:59:46.072Z,9.80
2022-11-28T16:02:23.761Z,9.80
2022-11-28T16:04:55.521Z,9.80
2022-11-28T16:07:22.545Z,9.80
2022-11-28T16:10:26.004Z,9.80
2022-11-28T16:12:58.635Z,9.80
2022-11-28T16:15:26.656Z,9.80
2022-11-28T16:17:56.872Z,9.80
2022-11-28T16:20:28.837Z,9.80
2022-11-28T16:22:59.839Z,9.80
2022-11-28T16:25:27.382Z,9.80
2022-11-28T16:27:54.265Z,9.70
2022-11-28T16:30:27.315Z,9.70
2022-11-28T16:32:55.617Z,9.80
2022-11-28T16:35:28.820Z,9.70
2022-11-28T16:38:06.124Z,9.70
2022-11-28T16:40:32.970Z,9.80
2022-11-28T16:43:02.885Z,9.70
2022-11-28T16:45:31.855Z,9.70
2022-11-28T16:48:16.731Z,9.70
2022-11-28T16:51:02.391Z,9.70
2022-11-28T16:53:51.002Z,9.70
2022-11-28T16:56:23.426Z,9.70
2022-11-28T16:59:05.624Z,9.70
2022-11-28T17:01:32.441Z,9.70
2022-11-28T17:03:59.479Z,9.60
2022-11-28T17:06:34.011Z,9.60
2022-11-28T17:09:12.153Z,9.70
2022-11-28T17:11:43.279Z,9.60
2022-11-28T17:14:13.658Z,9.60
2022-11-28T17:16:41.998Z,9.60
2022-11-28T17:19:08.943Z,9.60
2022-11-28T17:21:48.722Z,9.60
2022-11-28T17:24:18.545Z,9.60
2022-11-28T17:26:45.496Z,9.60
2022-11-28T17:29:14.812Z,9.60
2022-11-28T17:31:42.537Z,9.60
2022-11-28T17:34:17.373Z,9.60
2022-11-28T17:36:44.322Z,9.60
2022-11-28T17:39:12.780Z,9.60
2022-11-28T17:41:40.822Z,9.70
2022-11-28T17:44:12.831Z,9.60
2022-11-28T17:46:39.542Z,9.60
2022-11-28T17:49:06.348Z,9.60
2022-11-28T17:51:33.264Z,9.50
2022-11-28T17:53:59.998Z,9.50
2022-11-28T17:56:27.095Z,9.60
2022-11-28T17:58:53.743Z,9.60
2022-11-28T18:01:23.999Z,9.60
2022-11-28T18:03:52.910Z,9.60
2022-11-28T18:06:20.900Z,9.60
2022-11-28T18:08:49.076Z,9.60
2022-11-28T18:11:16.618Z,9.00
2022-11-28T18:13:43.810Z,9.60
2022-11-28T18:16:15.519Z,9.60
2022-11-28T18:18:42.259Z,9.60
2022-11-28T18:21:10.333Z,9.60
2022-11-28T18:23:41.078Z,9.60
2022-11-28T18:26:16.650Z,9.60
2022-11-28T18:28:43.324Z,9.60
2022-11-28T18:31:22.637Z,9.60
2022-11-28T18:33:49.713Z,9.60
2022-11-28T18:36:18.321Z,9.60
2022-11-28T18:38:45.397Z,9.60
2022-11-28T18:41:13.459Z,9.60
2022-11-28T18:43:40.261Z,9.70
2022-11-28T18:46:13.412Z,9.60
2022-11-28T18:48:44.953Z,9.60
2022-11-28T18:51:17.413Z,9.60
2022-11-28T18:53:44.384Z,9.60
2022-11-28T18:56:11.511Z,9.60
2022-11-28T18:58:39.877Z,9.70
2022-11-28T19:01:11.758Z,9.70
2022-11-28T19:03:39.692Z,9.60
2022-11-28T19:06:11.497Z,9.70
2022-11-28T19:08:38.913Z,9.70
2022-11-28T19:11:11.006Z,9.70
2022-11-28T19:17:25.321Z,9.70
2022-11-28T19:19:53.065Z,9.60
2022-11-28T19:22:19.804Z,9.60
2022-11-28T19:24:46.427Z,9.60
2022-11-28T19:27:14.736Z,9.60
2022-11-28T19:29:41.679Z,9.60
2022-11-28T19:32:08.793Z,9.60
2022-11-28T19:34:35.425Z,9.60
2022-11-28T19:37:02.102Z,9.60
2022-11-28T19:39:28.759Z,9.60
2022-11-28T19:41:55.852Z,9.60
2022-11-28T19:44:24.520Z,9.60
2022-11-28T19:46:51.499Z,9.60
2022-11-28T19:49:22.831Z,9.60
2022-11-28T19:51:50.293Z,9.60
2022-11-28T19:54:21.482Z,9.60
2022-11-28T19:56:48.849Z,9.60
2022-11-28T19:59:15.497Z,9.60
2022-11-28T20:01:42.382Z,9.60
2022-11-28T20:04:09.796Z,9.60
2022-11-28T20:06:36.465Z,9.70
2022-11-28T20:09:08.676Z,9.70
2022-11-28T20:11:36.503Z,9.70
2022-11-28T20:14:09.862Z,9.70
2022-11-28T20:16:37.103Z,9.70
2022-11-28T20:19:04.619Z,9.60
2022-11-28T20:21:31.905Z,10.00
2022-11-28T20:24:05.092Z,9.70
2022-11-28T20:26:35.624Z,9.60
2022-11-28T20:29:02.335Z,9.70
2022-11-28T20:31:31.642Z,9.60
2022-11-28T20:33:58.612Z,9.60
2022-11-28T20:36:26.677Z,9.60
2022-11-28T20:38:54.282Z,9.70
2022-11-28T20:41:22.321Z,9.70
2022-11-28T20:43:49.146Z,9.70
2022-11-28T20:46:26.970Z,9.60
2022-11-28T20:48:53.842Z,9.60
2022-11-28T20:51:22.916Z,9.50
2022-11-28T20:53:49.617Z,9.60
2022-11-28T20:56:24.355Z,9.50
2022-11-28T20:58:52.064Z,9.50
2022-11-28T21:01:21.724Z,9.60
2022-11-28T21:03:48.953Z,9.50
2022-11-28T21:06:16.088Z,9.50
2022-11-28T21:08:42.797Z,9.50
2022-11-28T21:14:19.254Z,9.50
2022-11-28T21:16:45.938Z,9.50
2022-11-28T21:19:12.609Z,9.50
2022-11-28T21:21:40.258Z,9.50
2022-11-28T21:24:09.638Z,9.50
2022-11-28T21:26:41.410Z,9.50
2022-11-28T21:29:11.557Z,9.50
2022-11-28T21:31:41.240Z,9.60
2022-11-28T21:34:07.912Z,9.60
2022-11-28T21:36:34.785Z,9.60
2022-11-28T21:39:01.571Z,9.60
2022-11-28T21:41:30.332Z,9.50
2022-11-28T21:43:57.103Z,9.60
2022-11-28T21:46:24.104Z,9.50
2022-11-28T21:48:51.018Z,9.50
2022-11-28T21:51:19.803Z,9.50
2022-11-28T21:53:46.958Z,9.60
2022-11-28T21:56:13.811Z,9.60
2022-11-28T21:58:40.816Z,9.60
2022-11-28T22:01:12.137Z,9.60
2022-11-28T22:03:40.232Z,9.60
2022-11-28T22:06:17.740Z,9.60
2022-11-28T22:08:45.162Z,9.60
2022-11-28T22:11:13.308Z,9.60
2022-11-28T22:13:42.179Z,9.70
2022-11-28T22:16:11.384Z,9.60
2022-11-28T22:18:38.436Z,9.60
2022-11-28T22:21:28.652Z,9.60
2022-11-28T22:23:53.435Z,9.60
2022-11-28T22:26:20.241Z,9.60
2022-11-28T22:28:53.217Z,9.60
2022-11-28T22:31:20.455Z,9.60
2022-11-28T22:33:49.393Z,9.60
2022-11-28T22:36:18.140Z,9.50
2022-11-28T22:38:45.795Z,9.60
2022-11-28T22:41:15.267Z,9.60
2022-11-28T22:43:42.050Z,9.50
2022-11-28T22:46:09.301Z,9.60
2022-11-28T22:48:37.028Z,9.50
2022-11-28T22:51:08.378Z,9.50
2022-11-28T22:53:37.865Z,9.50
2022-11-28T22:56:09.536Z,9.50
2022-11-28T22:58:42.297Z,9.50
2022-11-28T23:01:14.815Z,9.50
2022-11-28T23:03:41.648Z,9.50
2022-11-28T23:06:11.098Z,9.50
2022-11-28T23:08:37.959Z,9.50
2022-11-28T23:11:09.595Z,9.40
2022-11-28T23:13:37.039Z,9.40
2022-11-28T23:16:12.085Z,10.20
2022-11-28T23:18:39.012Z,9.40
2022-11-28T23:21:05.859Z,9.40
2022-11-28T23:23:33.501Z,9.40
2022-11-28T23:26:11.595Z,9.40
2022-11-28T23:28:38.857Z,9.30
2022-11-28T23:31:14.550Z,9.30
2022-11-28T23:33:41.891Z,9.30
2022-11-28T23:36:14.616Z,9.30
2022-11-28T23:38:41.632Z,9.30
2022-11-28T23:41:08.388Z,9.20
2022-11-28T23:43:35.112Z,9.20
2022-11-28T23:46:02.130Z,9.30
2022-11-28T23:48:28.819Z,9.30
2022-11-28T23:50:55.523Z,9.20
2022-11-28T23:53:22.337Z,9.20
2022-11-28T23:55:49.033Z,9.20
2022-11-28T23:58:15.702Z,9.20
